Welcome to Northern Hawkes Bay. New Zealand.
PWS Header
      nz Flag



Hit Counter


W3C Valid W3C Valid logo


    Wairoa

Select any of the Stations below to visit their websites.










Historic Data from Weather Underground
Select the location of interest below. Wairoa is the default. Please have patience, this Data is slow to load in.
Northern Hawkes Bay Historical Data
Daily Summary for August 27, 2017 Units:  Metric    English   Both
« Previous Day
Next Day »
Daily Weekly Monthly Yearly Custom
  High: Low: Average:
Temperature: 19.9 °C 6.4 °C 12.7 °C
Dew Point: 8.7 °C 5.2 °C 6.9 °C
Humidity: 93% 43% 71%
Wind Speed: 17.2km/h 0.0km/h 5.6km/h
Wind Gust: 31.7km/h - -
Wind- - SSE
Pressure: 1027.0 hPa 1019.9 hPa -
Precipitation: 0.0 mm    
Historical Graphs
 
 
Tabular Data for August 27, 2017
Time Temperature Dew Point Pressure Wind Wind Speed Wind Gust Humidity Rainfall Rate (Hourly) solar
00:03 10.5 °C 7.6 °C 1027.0 hPa North 9.7 km/h 13.4 km/h 82% 0.0 mm 0 W/m2
00:08 10.5 °C 7.6 °C 1026.6 hPa North 7.2 km/h 13.4 km/h 82% 0.0 mm 0 W/m2
00:13 10.5 °C 7.4 °C 1027.0 hPa North 7.2 km/h 13.4 km/h 81% 0.0 mm 0 W/m2
00:18 10.6 °C 7.5 °C 1026.6 hPa NNW 7.2 km/h 13.4 km/h 81% 0.0 mm 0 W/m2
00:23 10.6 °C 7.5 °C 1027.0 hPa NNW 5.0 km/h 13.4 km/h 81% 0.0 mm 0 W/m2
00:28 10.5 °C 7.4 °C 1027.0 hPa NNW 6.1 km/h 13.4 km/h 81% 0.0 mm 0 W/m2
00:33 10.2 °C 7.1 °C 1027.0 hPa NNW 6.1 km/h 12.2 km/h 81% 0.0 mm 0 W/m2
00:38 9.9 °C 7.3 °C 1027.0 hPa North 3.5 km/h 11.1 km/h 84% 0.0 mm 0 W/m2
00:43 9.7 °C 7.1 °C 1027.0 hPa North 3.5 km/h 9.7 km/h 84% 0.0 mm 0 W/m2
00:48 9.5 °C 6.9 °C 1026.6 hPa North 3.5 km/h 9.7 km/h 84% 0.0 mm 0 W/m2
00:53 9.3 °C 6.9 °C 1026.6 hPa North 2.6 km/h 7.2 km/h 85% 0.0 mm 0 W/m2
00:58 9.1 °C 6.7 °C 1026.6 hPa Calm   7.2 km/h 85% 0.0 mm 0 W/m2
01:03 8.9 °C 6.7 °C 1026.6 hPa Calm   6.1 km/h 86% 0.0 mm 0 W/m2
01:08 8.5 °C 6.3 °C 1026.6 hPa Calm   2.6 km/h 86% 0.0 mm 0 W/m2
01:14 8.5 °C 6.3 °C 1026.6 hPa NW 2.6 km/h 5.0 km/h 86% 0.0 mm 0 W/m2
01:19 8.5 °C 6.4 °C 1026.6 hPa NW 2.6 km/h 6.1 km/h 87% 0.0 mm 0 W/m2
01:24 8.5 °C 6.4 °C 1026.6 hPa Calm   6.1 km/h 87% 0.0 mm 0 W/m2
01:29 8.3 °C 6.3 °C 1026.6 hPa Calm   5.0 km/h 87% 0.0 mm 0 W/m2
01:34 8.1 °C 6.1 °C 1026.6 hPa Calm     87% 0.0 mm 0 W/m2
01:39 7.9 °C 5.9 °C 1026.3 hPa Calm     87% 0.0 mm 0 W/m2
01:44 7.7 °C 5.7 °C 1026.6 hPa Calm     87% 0.0 mm 0 W/m2
01:49 7.8 °C 5.8 °C 1026.6 hPa Calm   2.6 km/h 87% 0.0 mm 0 W/m2
01:54 7.8 °C 5.9 °C 1026.3 hPa Calm   3.5 km/h 88% 0.0 mm 0 W/m2
02:14 8.0 °C 6.3 °C 1026.6 hPa North 2.6 km/h 6.1 km/h 89% 0.0 mm 0 W/m2
02:19 8.1 °C 6.2 °C 1026.3 hPa NNW 3.5 km/h 5.0 km/h 88% 0.0 mm 0 W/m2
02:24 8.2 °C 6.5 °C 1026.6 hPa NW 3.5 km/h 6.1 km/h 89% 0.0 mm 0 W/m2
02:29 8.1 °C 6.2 °C 1026.3 hPa NW 2.6 km/h 6.1 km/h 88% 0.0 mm 0 W/m2
02:34 8.0 °C 6.1 °C 1026.3 hPa NW 2.6 km/h 6.1 km/h 88% 0.0 mm 0 W/m2
02:39 7.9 °C 6.2 °C 1026.3 hPa NW 2.6 km/h 5.0 km/h 89% 0.0 mm 0 W/m2
02:44 7.9 °C 6.2 °C 1026.3 hPa WNW 3.5 km/h 6.1 km/h 89% 0.0 mm 0 W/m2
02:49 7.9 °C 6.2 °C 1026.3 hPa WNW 2.6 km/h 7.2 km/h 89% 0.0 mm 0 W/m2
02:54 7.9 °C 6.2 °C 1026.0 hPa NW 1.1 km/h 7.2 km/h 89% 0.0 mm 0 W/m2
02:59 7.8 °C 6.1 °C 1026.0 hPa NNW 2.6 km/h 5.0 km/h 89% 0.0 mm 0 W/m2
03:04 7.6 °C 5.9 °C 1026.0 hPa ENE 1.1 km/h 5.0 km/h 89% 0.0 mm 0 W/m2
03:09 7.5 °C 5.8 °C 1026.0 hPa NE 1.1 km/h 5.0 km/h 89% 0.0 mm 0 W/m2
03:15 7.3 °C 5.6 °C 1026.0 hPa NNE 3.5 km/h 5.0 km/h 89% 0.0 mm 0 W/m2
03:20 7.3 °C 5.8 °C 1026.0 hPa North 3.5 km/h 7.2 km/h 90% 0.0 mm 0 W/m2
03:26 7.4 °C 6.1 °C 1025.6 hPa NNW 3.5 km/h 7.2 km/h 91% 0.0 mm 0 W/m2
03:31 7.2 °C 5.8 °C 1025.6 hPa North 2.6 km/h 6.1 km/h 91% 0.0 mm 0 W/m2
03:36 7.1 °C 5.7 °C 1025.6 hPa NNW 2.6 km/h 6.1 km/h 91% 0.0 mm 0 W/m2
03:41 6.8 °C 5.4 °C 1025.6 hPa NNW 2.6 km/h 6.1 km/h 91% 0.0 mm 0 W/m2
03:46 6.6 °C 5.4 °C 1025.6 hPa NW 5.0 km/h 6.1 km/h 92% 0.0 mm 0 W/m2
03:51 6.4 °C 5.2 °C 1025.6 hPa NW 2.6 km/h 6.1 km/h 92% 0.0 mm 0 W/m2
03:56 6.4 °C 5.2 °C 1025.6 hPa NNW 2.6 km/h 9.7 km/h 92% 0.0 mm 0 W/m2
04:01 6.6 °C 5.4 °C 1025.6 hPa NW 5.0 km/h 9.7 km/h 92% 0.0 mm 0 W/m2
04:06 6.7 °C 5.7 °C 1025.6 hPa NNW 5.0 km/h 7.2 km/h 93% 0.0 mm 0 W/m2
04:11 6.8 °C 5.7 °C 1025.6 hPa North 3.5 km/h 8.7 km/h 93% 0.0 mm 0 W/m2
04:16 6.7 °C 5.7 °C 1025.6 hPa North 2.6 km/h 8.7 km/h 93% 0.0 mm 0 W/m2
04:21 6.7 °C 5.7 °C 1025.6 hPa North 3.5 km/h 6.1 km/h 93% 0.0 mm 0 W/m2
04:26 6.8 °C 5.7 °C 1025.6 hPa North 3.5 km/h 6.1 km/h 93% 0.0 mm 0 W/m2
04:31 6.8 °C 5.7 °C 1025.6 hPa NNW 5.0 km/h 8.7 km/h 93% 0.0 mm 0 W/m2
04:37 6.9 °C 5.8 °C 1025.6 hPa NW 5.0 km/h 8.7 km/h 93% 0.0 mm 0 W/m2
04:42 6.9 °C 5.8 °C 1026.0 hPa NW 3.5 km/h 7.2 km/h 93% 0.0 mm 0 W/m2
04:47 6.9 °C 5.8 °C 1025.6 hPa NW 3.5 km/h 6.1 km/h 93% 0.0 mm 0 W/m2
04:52 6.9 °C 5.8 °C 1025.6 hPa NW 5.0 km/h 7.2 km/h 93% 0.0 mm 0 W/m2
04:57 6.9 °C 5.8 °C 1026.0 hPa NW 3.5 km/h 7.2 km/h 93% 0.0 mm 0 W/m2
05:02 6.9 °C 5.8 °C 1025.6 hPa NW 5.0 km/h 8.7 km/h 93% 0.0 mm 0 W/m2
05:07 6.9 °C 5.8 °C 1025.6 hPa NW 5.0 km/h 9.7 km/h 93% 0.0 mm 0 W/m2
05:12 6.9 °C 5.8 °C 1025.6 hPa NW 5.0 km/h 9.7 km/h 93% 0.0 mm 0 W/m2
05:17 6.8 °C 5.7 °C 1025.6 hPa NW 5.0 km/h 8.7 km/h 93% 0.0 mm 0 W/m2
05:22 6.8 °C 5.7 °C 1025.6 hPa NW 5.0 km/h 8.7 km/h 93% 0.0 mm 0 W/m2
05:27 6.9 °C 5.8 °C 1025.6 hPa NW 5.0 km/h 8.7 km/h 93% 0.0 mm 0 W/m2
05:32 6.9 °C 5.8 °C 1025.6 hPa NW 6.1 km/h 8.7 km/h 93% 0.0 mm 0 W/m2
05:37 7.0 °C 5.8 °C 1025.6 hPa NW 6.1 km/h 8.7 km/h 92% 0.0 mm 0 W/m2
05:42 7.1 °C 5.7 °C 1025.6 hPa NW 6.1 km/h 8.7 km/h 91% 0.0 mm 0 W/m2
05:47 7.1 °C 5.7 °C 1025.6 hPa NNW 6.1 km/h 8.7 km/h 91% 0.0 mm 0 W/m2
05:52 7.1 °C 5.7 °C 1025.6 hPa NNW 3.5 km/h 8.7 km/h 91% 0.0 mm 0 W/m2
05:57 7.0 °C 5.6 °C 1025.6 hPa NNW 3.5 km/h 8.7 km/h 91% 0.0 mm 0 W/m2
06:02 6.8 °C 5.6 °C 1025.6 hPa NW 2.6 km/h 7.2 km/h 92% 0.0 mm 0 W/m2
06:07 6.8 °C 5.6 °C 1025.6 hPa NW 2.6 km/h 6.1 km/h 92% 0.0 mm 0 W/m2
06:12 6.8 °C 5.6 °C 1025.6 hPa NW 5.0 km/h 7.2 km/h 92% 0.0 mm 0 W/m2
06:17 6.9 °C 5.7 °C 1025.6 hPa NW 2.6 km/h 7.2 km/h 92% 0.0 mm 0 W/m2
06:22 7.0 °C 5.6 °C 1025.6 hPa NW 5.0 km/h 9.7 km/h 91% 0.0 mm 0 W/m2
06:27 7.1 °C 5.7 °C 1025.6 hPa NW 2.6 km/h 9.7 km/h 91% 0.0 mm 0 W/m2
06:32 7.0 °C 5.5 °C 1026.0 hPa NW 3.5 km/h 7.2 km/h 90% 0.0 mm 0 W/m2
06:37 7.1 °C 5.6 °C 1026.0 hPa NW 1.1 km/h 6.1 km/h 90% 0.0 mm 0 W/m2
06:42 7.0 °C 5.5 °C 1026.0 hPa NNW 1.1 km/h 6.1 km/h 90% 0.0 mm 0 W/m2
06:47 6.9 °C 5.6 °C 1026.0 hPa North 2.6 km/h 3.5 km/h 91% 0.0 mm 1 W/m2
06:52 6.8 °C 5.4 °C 1026.0 hPa NNE 1.1 km/h 2.6 km/h 91% 0.0 mm 3 W/m2
06:57 6.8 °C 5.4 °C 1026.0 hPa North 2.6 km/h 3.5 km/h 91% 0.0 mm 5 W/m2
07:03 6.9 °C 5.6 °C 1026.0 hPa North 2.6 km/h 5.0 km/h 91% 0.0 mm 11 W/m2
07:08 7.1 °C 5.7 °C 1026.0 hPa North 1.1 km/h 5.0 km/h 91% 0.0 mm 21 W/m2
07:13 7.4 °C 6.1 °C 1026.0 hPa North 1.1 km/h 5.0 km/h 91% 0.0 mm 23 W/m2
07:18 7.4 °C 6.1 °C 1026.0 hPa NNE 3.5 km/h 5.0 km/h 91% 0.0 mm 25 W/m2
07:23 7.5 °C 5.9 °C 1026.0 hPa Calm   5.0 km/h 90% 0.0 mm 41 W/m2
07:28 7.7 °C 6.3 °C 1026.0 hPa NNE 2.6 km/h 5.0 km/h 91% 0.0 mm 72 W/m2
07:33 8.4 °C 6.8 °C 1025.6 hPa Calm   3.5 km/h 90% 0.0 mm 109 W/m2
07:38 9.6 °C 7.9 °C 1026.0 hPa Calm   3.5 km/h 89% 0.0 mm 48 W/m2
07:43 9.3 °C 7.2 °C 1026.0 hPa Calm   2.6 km/h 87% 0.0 mm 46 W/m2
07:48 9.1 °C 6.9 °C 1026.0 hPa NNE 1.1 km/h 2.6 km/h 86% 0.0 mm 60 W/m2
07:53 9.0 °C 6.6 °C 1026.0 hPa Calm   2.6 km/h 85% 0.0 mm 68 W/m2
07:58 9.0 °C 6.6 °C 1026.0 hPa NNE 2.6 km/h 3.5 km/h 85% 0.0 mm 93 W/m2
08:03 9.2 °C 6.8 °C 1026.0 hPa North 3.5 km/h 6.1 km/h 85% 0.0 mm 90 W/m2
08:08 9.4 °C 7.0 °C 1026.0 hPa North 1.1 km/h 6.1 km/h 85% 0.0 mm 88 W/m2
08:13 9.6 °C 7.2 °C 1026.0 hPa North 2.6 km/h 6.1 km/h 85% 0.0 mm 78 W/m2
08:18 9.7 °C 7.3 °C 1026.0 hPa North 2.6 km/h 5.0 km/h 85% 0.0 mm 79 W/m2
08:23 9.8 °C 7.2 °C 1026.0 hPa North 2.6 km/h 5.0 km/h 84% 0.0 mm 86 W/m2
08:28 10.1 °C 7.3 °C 1026.0 hPa North 1.1 km/h 5.0 km/h 83% 0.0 mm 97 W/m2
08:33 10.3 °C 7.6 °C 1026.0 hPa North 1.1 km/h 3.5 km/h 83% 0.0 mm 110 W/m2
08:38 10.7 °C 7.9 °C 1026.0 hPa NNW 1.1 km/h 3.5 km/h 83% 0.0 mm 148 W/m2
08:43 11.7 °C 8.7 °C 1026.0 hPa Calm   3.5 km/h 82% 0.0 mm 177 W/m2
08:48 12.3 °C 8.2 °C 1026.0 hPa ENE 1.1 km/h 5.0 km/h 76% 0.0 mm 157 W/m2
08:53 12.7 °C 8.2 °C 1026.0 hPa Calm   5.0 km/h 74% 0.0 mm 138 W/m2
08:58 12.7 °C 7.6 °C 1026.0 hPa North 2.6 km/h 5.0 km/h 71% 0.0 mm 128 W/m2
09:03 12.6 °C 7.5 °C 1026.0 hPa NNW 3.5 km/h 5.0 km/h 71% 0.0 mm 130 W/m2
09:08 12.2 °C 7.3 °C 1026.0 hPa Calm   6.1 km/h 72% 0.0 mm 143 W/m2
09:13 12.3 °C 7.6 °C 1026.0 hPa WSW 2.6 km/h 6.1 km/h 73% 0.0 mm 162 W/m2
09:18 12.9 °C 8.0 °C 1026.0 hPa SW 1.1 km/h 6.1 km/h 72% 0.0 mm 167 W/m2
09:23 13.5 °C 8.2 °C 1026.0 hPa East 7.2 km/h 11.1 km/h 70% 0.0 mm 186 W/m2
09:28 13.7 °C 7.2 °C 1025.6 hPa NE 7.2 km/h 13.4 km/h 65% 0.0 mm 186 W/m2
09:31 13.8 °C 7.1 °C 1026.0 hPa NE 8.7 km/h 15.8 km/h 64% 0.0 mm 200 W/m2
09:36 14.1 °C 7.2 °C 1026.0 hPa NE 3.5 km/h 15.8 km/h 63% 0.0 mm 191 W/m2
09:41 14.2 °C 6.6 °C 1026.0 hPa NE 3.5 km/h 18.3 km/h 60% 0.0 mm 188 W/m2
09:46 14.4 °C 6.7 °C 1025.6 hPa NE 11.1 km/h 20.9 km/h 60% 0.0 mm 181 W/m2
09:50 14.4 °C 6.5 °C 1025.6 hPa NE 8.7 km/h 20.9 km/h 59% 0.0 mm 162 W/m2
09:55 15.0 °C 6.6 °C 1025.6 hPa NE 7.2 km/h 20.9 km/h 57% 0.0 mm 178 W/m2
10:00 16.0 °C 6.7 °C 1025.6 hPa NE 9.7 km/h 20.9 km/h 54% 0.0 mm 165 W/m2
10:05 16.5 °C 6.9 °C 1025.6 hPa NNE 12.2 km/h 17.2 km/h 53% 0.0 mm 177 W/m2
10:10 16.0 °C 6.4 °C 1025.6 hPa NNE 8.7 km/h 17.2 km/h 53% 0.0 mm 177 W/m2
10:15 16.5 °C 6.9 °C 1025.6 hPa NNE 7.2 km/h 17.2 km/h 53% 0.0 mm 130 W/m2
10:33 17.0 °C 6.5 °C 1025.3 hPa NNE 11.1 km/h 20.9 km/h 50% 0.0 mm 87 W/m2
10:38 17.6 °C 7.3 °C 1025.3 hPa NE 14.8 km/h 18.3 km/h 51% 0.0 mm 213 W/m2
10:43 17.1 °C 6.0 °C 1025.3 hPa NE 8.7 km/h 18.3 km/h 48% 0.0 mm 361 W/m2
10:48 17.4 °C 7.2 °C 1025.3 hPa NE 6.1 km/h 18.3 km/h 51% 0.0 mm 315 W/m2
10:53 17.7 °C 6.6 °C 1025.3 hPa NE 7.2 km/h 12.2 km/h 48% 0.0 mm 380 W/m2
10:58 17.4 °C 6.3 °C 1024.9 hPa ENE 12.2 km/h 19.5 km/h 48% 0.0 mm 370 W/m2
11:03 17.5 °C 7.3 °C 1024.9 hPa ENE 7.2 km/h 19.5 km/h 51% 0.0 mm 368 W/m2
11:08 17.4 °C 6.9 °C 1024.9 hPa NE 3.5 km/h 24.5 km/h 50% 0.0 mm 390 W/m2
11:13 17.7 °C 7.2 °C 1024.9 hPa NE 8.7 km/h 24.5 km/h 50% 0.0 mm 379 W/m2
11:18 17.3 °C 7.1 °C 1024.6 hPa NNE 7.2 km/h 19.5 km/h 51% 0.0 mm 396 W/m2
11:23 17.9 °C 7.3 °C 1024.9 hPa North 8.7 km/h 19.5 km/h 50% 0.0 mm 440 W/m2
11:28 17.9 °C 6.4 °C 1024.6 hPa North 15.8 km/h 20.9 km/h 47% 0.0 mm 397 W/m2
11:33 17.5 °C 6.4 °C 1024.6 hPa North 14.8 km/h 27.0 km/h 48% 0.0 mm 405 W/m2
11:38 17.9 °C 6.4 °C 1024.3 hPa NNE 8.7 km/h 27.0 km/h 47% 0.0 mm 409 W/m2
11:43 18.1 °C 6.3 °C 1024.3 hPa NNE 9.7 km/h 21.9 km/h 46% 0.0 mm 240 W/m2
11:48 18.1 °C 6.6 °C 1024.3 hPa North 13.4 km/h 21.9 km/h 47% 0.0 mm 404 W/m2
11:53 18.3 °C 6.2 °C 1023.9 hPa NNE 11.1 km/h 21.9 km/h 45% 0.0 mm 403 W/m2
11:58 18.0 °C 6.2 °C 1023.9 hPa NE 13.4 km/h 23.3 km/h 46% 0.0 mm 356 W/m2
12:03 18.1 °C 6.3 °C 1023.9 hPa NNE 15.8 km/h 27.0 km/h 46% 0.0 mm 414 W/m2
12:08 17.7 °C 5.9 °C 1023.9 hPa NNE 6.1 km/h 27.0 km/h 46% 0.0 mm 134 W/m2
12:13 17.9 °C 6.7 °C 1023.6 hPa NNE 13.4 km/h 25.6 km/h 48% 0.0 mm 267 W/m2
12:18 17.9 °C 6.1 °C 1023.6 hPa NNE 12.2 km/h 29.4 km/h 46% 0.0 mm 472 W/m2
12:23 18.3 °C 6.8 °C 1023.2 hPa NNE 12.2 km/h 29.4 km/h 47% 0.0 mm 515 W/m2
12:28 19.0 °C 7.1 °C 1023.6 hPa NNE 11.1 km/h 19.5 km/h 46% 0.0 mm 496 W/m2
12:33 19.7 °C 7.4 °C 1023.2 hPa NNE 8.7 km/h 19.5 km/h 45% 0.0 mm 473 W/m2
12:38 19.9 °C 7.3 °C 1023.2 hPa NNE 11.1 km/h 20.9 km/h 44% 0.0 mm 476 W/m2
12:43 19.7 °C 7.1 °C 1023.2 hPa NNE 8.7 km/h 20.9 km/h 44% 0.0 mm 341 W/m2
12:48 19.4 °C 6.8 °C 1022.9 hPa NNE 8.7 km/h 20.9 km/h 44% 0.0 mm 238 W/m2
12:53 18.7 °C 6.8 °C 1022.6 hPa NNE 7.2 km/h 20.9 km/h 46% 0.0 mm 190 W/m2
12:58 19.0 °C 7.1 °C 1022.9 hPa NNE 7.2 km/h 18.3 km/h 46% 0.0 mm 279 W/m2
13:03 19.4 °C 7.2 °C 1022.6 hPa NNE 13.4 km/h 20.9 km/h 45% 0.0 mm 343 W/m2
13:07 18.9 °C 7.1 °C 1022.6 hPa NNE 8.7 km/h 25.6 km/h 46% 0.0 mm 162 W/m2
13:12 18.1 °C 6.3 °C 1022.2 hPa NNE 11.1 km/h 25.6 km/h 46% 0.0 mm 307 W/m2
13:17 18.6 °C 6.8 °C 1022.2 hPa NNE 14.8 km/h 20.9 km/h 46% 0.0 mm 261 W/m2
13:22 19.0 °C 6.8 °C 1022.2 hPa North 8.7 km/h 24.5 km/h 45% 0.0 mm 396 W/m2
13:27 19.2 °C 6.7 °C 1022.2 hPa North 13.4 km/h 24.5 km/h 44% 0.0 mm 311 W/m2
13:32 19.1 °C 6.2 °C 1021.9 hPa NNW 13.4 km/h 24.5 km/h 43% 0.0 mm 246 W/m2
13:37 18.9 °C 6.4 °C 1021.9 hPa NNW 15.8 km/h 24.5 km/h 44% 0.0 mm 219 W/m2
13:42 18.9 °C 6.7 °C 1021.9 hPa North 7.2 km/h 25.6 km/h 45% 0.0 mm 292 W/m2
13:47 18.9 °C 6.7 °C 1021.9 hPa North 7.2 km/h 25.6 km/h 45% 0.0 mm 124 W/m2
13:52 18.9 °C 7.1 °C 1021.6 hPa North 13.4 km/h 20.9 km/h 46% 0.0 mm 239 W/m2
13:57 18.8 °C 6.9 °C 1021.6 hPa NNE 14.8 km/h 21.9 km/h 46% 0.0 mm 227 W/m2
14:02 18.9 °C 7.1 °C 1021.9 hPa North 14.8 km/h 21.9 km/h 46% 0.0 mm 213 W/m2
14:07 18.9 °C 6.7 °C 1021.6 hPa North 11.1 km/h 20.9 km/h 45% 0.0 mm 161 W/m2
14:12 18.7 °C 6.6 °C 1021.6 hPa North 5.0 km/h 23.3 km/h 45% 0.0 mm 307 W/m2
14:17 19.2 °C 6.7 °C 1021.6 hPa NNW 11.1 km/h 23.3 km/h 44% 0.0 mm 199 W/m2
14:22 18.9 °C 6.7 °C 1021.6 hPa NNW 7.2 km/h 25.6 km/h 45% 0.0 mm 160 W/m2
14:27 18.6 °C 6.4 °C 1021.6 hPa North 11.1 km/h 25.6 km/h 45% 0.0 mm 159 W/m2
14:32 18.4 °C 6.3 °C 1021.6 hPa North 8.7 km/h 23.3 km/h 45% 0.0 mm 161 W/m2
14:37 18.7 °C 6.6 °C 1021.2 hPa NNE 9.7 km/h 20.9 km/h 45% 0.0 mm 153 W/m2
14:42 18.8 °C 6.6 °C 1021.2 hPa NNE 8.7 km/h 21.9 km/h 45% 0.0 mm 157 W/m2
14:47 19.3 °C 6.8 °C 1021.2 hPa NNE 5.0 km/h 21.9 km/h 44% 0.0 mm 146 W/m2
14:52 19.6 °C 7.0 °C 1021.2 hPa North 8.7 km/h 17.2 km/h 44% 0.0 mm 139 W/m2
14:57 19.0 °C 6.5 °C 1020.9 hPa North 11.1 km/h 20.9 km/h 44% 0.0 mm 132 W/m2
15:02 18.7 °C 6.6 °C 1020.9 hPa North 13.4 km/h 24.5 km/h 45% 0.0 mm 124 W/m2
15:07 18.4 °C 6.6 °C 1020.9 hPa North 17.2 km/h 24.5 km/h 46% 0.0 mm 124 W/m2
15:12 18.2 °C 6.4 °C 1020.9 hPa North 11.1 km/h 21.9 km/h 46% 0.0 mm 151 W/m2
15:17 18.2 °C 6.4 °C 1020.9 hPa North 5.0 km/h 20.9 km/h 46% 0.0 mm 147 W/m2
15:22 18.1 °C 6.3 °C 1020.9 hPa North 13.4 km/h 21.9 km/h 46% 0.0 mm 117 W/m2
15:27 17.9 °C 6.4 °C 1020.9 hPa North 8.7 km/h 21.9 km/h 47% 0.0 mm 113 W/m2
15:29 17.8 °C 6.3 °C 1020.9 hPa North 11.1 km/h 21.9 km/h 47% 0.0 mm 112 W/m2
15:34 17.6 °C 5.8 °C 1020.9 hPa NNE 11.1 km/h 20.9 km/h 46% 0.0 mm 122 W/m2
15:39 17.6 °C 6.2 °C 1020.9 hPa North 9.7 km/h 20.9 km/h 47% 0.0 mm 121 W/m2
15:44 17.6 °C 6.8 °C 1020.9 hPa North 17.2 km/h 20.9 km/h 49% 0.0 mm 127 W/m2
15:49 17.7 °C 6.3 °C 1021.2 hPa North 9.7 km/h 21.9 km/h 47% 0.0 mm 146 W/m2
15:54 18.2 °C 6.7 °C 1021.2 hPa North 11.1 km/h 21.9 km/h 47% 0.0 mm 164 W/m2
15:59 18.8 °C 7.3 °C 1020.9 hPa North 8.7 km/h 17.2 km/h 47% 0.0 mm 167 W/m2
16:04 18.7 °C 6.8 °C 1021.2 hPa North 11.1 km/h 20.9 km/h 46% 0.0 mm 154 W/m2
16:09 18.4 °C 6.6 °C 1020.9 hPa North 11.1 km/h 24.5 km/h 46% 0.0 mm 115 W/m2
16:14 18.0 °C 6.8 °C 1020.9 hPa North 12.2 km/h 24.5 km/h 48% 0.0 mm 118 W/m2
16:19 17.9 °C 7.1 °C 1020.9 hPa NNW 7.2 km/h 24.5 km/h 49% 0.0 mm 82 W/m2
16:24 17.4 °C 7.2 °C 1020.9 hPa North 12.2 km/h 21.9 km/h 51% 0.0 mm 72 W/m2
16:29 17.3 °C 7.3 °C 1020.9 hPa NNW 7.2 km/h 20.9 km/h 52% 0.0 mm 88 W/m2
16:34 17.4 °C 7.2 °C 1020.9 hPa NW 13.4 km/h 20.9 km/h 51% 0.0 mm 64 W/m2
16:39 17.0 °C 7.1 °C 1020.9 hPa NNW 7.2 km/h 20.9 km/h 52% 0.0 mm 64 W/m2
16:44 16.9 °C 7.0 °C 1020.9 hPa NNE 12.2 km/h 31.7 km/h 52% 0.0 mm 52 W/m2
16:49 16.7 °C 7.1 °C 1020.9 hPa North 12.2 km/h 31.7 km/h 53% 0.0 mm 46 W/m2
16:54 16.5 °C 6.9 °C 1020.9 hPa NNW 12.2 km/h 28.0 km/h 53% 0.0 mm 41 W/m2
16:59 16.3 °C 6.7 °C 1020.9 hPa North 13.4 km/h 21.9 km/h 53% 0.0 mm 34 W/m2
17:04 16.2 °C 6.9 °C 1020.9 hPa North 11.1 km/h 21.9 km/h 54% 0.0 mm 28 W/m2
17:09 16.0 °C 6.9 °C 1020.9 hPa North 8.7 km/h 21.9 km/h 55% 0.0 mm 23 W/m2
17:14 15.8 °C 7.1 °C 1021.2 hPa NNW 7.2 km/h 18.3 km/h 56% 0.0 mm 18 W/m2
17:19 15.6 °C 7.1 °C 1021.2 hPa NNW 7.2 km/h 18.3 km/h 57% 0.0 mm 12 W/m2
17:24 15.4 °C 7.2 °C 1021.2 hPa North 7.2 km/h 18.3 km/h 58% 0.0 mm 9 W/m2
17:29 15.3 °C 7.3 °C 1021.2 hPa NNW 7.2 km/h 18.3 km/h 59% 0.0 mm 5 W/m2
17:34 15.1 °C 7.2 °C 1020.9 hPa NNW 8.7 km/h 13.4 km/h 59% 0.0 mm 2 W/m2
17:39 15.1 °C 7.2 °C 1021.2 hPa NNW 5.0 km/h 13.4 km/h 59% 0.0 mm 0 W/m2
17:44 14.9 °C 7.4 °C 1021.2 hPa NNW 6.1 km/h 14.8 km/h 61% 0.0 mm 0 W/m2
17:49 14.9 °C 7.4 °C 1021.2 hPa NNW 5.0 km/h 17.2 km/h 61% 0.0 mm 0 W/m2
17:55 14.7 °C 7.5 °C 1021.2 hPa North 3.5 km/h 17.2 km/h 62% 0.0 mm 0 W/m2
18:00 14.6 °C 7.4 °C 1021.6 hPa North 1.1 km/h 8.7 km/h 62% 0.0 mm 0 W/m2
18:06 14.4 °C 7.4 °C 1021.2 hPa NNE 1.1 km/h 7.2 km/h 63% 0.0 mm 0 W/m2
18:11 14.2 °C 7.5 °C 1021.2 hPa NNE 6.1 km/h 7.2 km/h 64% 0.0 mm 0 W/m2
18:16 14.1 °C 7.4 °C 1020.9 hPa Calm   7.2 km/h 64% 0.0 mm 0 W/m2
18:21 14.0 °C 7.3 °C 1021.2 hPa Calm   7.2 km/h 64% 0.0 mm 0 W/m2
18:26 13.7 °C 7.2 °C 1021.2 hPa Calm     65% 0.0 mm 0 W/m2
18:30 13.6 °C 7.2 °C 1021.2 hPa Calm   2.6 km/h 65% 0.0 mm 0 W/m2
18:35 13.3 °C 7.1 °C 1021.2 hPa Calm   2.6 km/h 66% 0.0 mm 0 W/m2
18:40 13.2 °C 7.2 °C 1021.2 hPa East 2.6 km/h 3.5 km/h 67% 0.0 mm 0 W/m2
18:45 13.1 °C 7.3 °C 1021.2 hPa East 1.1 km/h 3.5 km/h 68% 0.0 mm 0 W/m2
18:51 12.8 °C 7.1 °C 1021.2 hPa Calm   3.5 km/h 68% 0.0 mm 0 W/m2
18:56 12.8 °C 7.1 °C 1021.2 hPa ENE 3.5 km/h 5.0 km/h 68% 0.0 mm 0 W/m2
19:01 13.0 °C 7.2 °C 1020.9 hPa ENE 5.0 km/h 7.2 km/h 68% 0.0 mm 0 W/m2
19:06 12.9 °C 7.3 °C 1020.9 hPa ENE 3.5 km/h 7.2 km/h 69% 0.0 mm 0 W/m2
19:11 12.8 °C 7.3 °C 1021.2 hPa ENE 3.5 km/h 8.7 km/h 69% 0.0 mm 0 W/m2
19:17 12.7 °C 7.4 °C 1020.9 hPa ENE 3.5 km/h 8.7 km/h 70% 0.0 mm 0 W/m2
19:22 12.7 °C 7.6 °C 1020.9 hPa ENE 2.6 km/h 7.2 km/h 71% 0.0 mm 0 W/m2
19:27 12.6 °C 7.5 °C 1020.9 hPa ENE 5.0 km/h 7.2 km/h 71% 0.0 mm 0 W/m2
19:32 12.6 °C 7.5 °C 1021.2 hPa ENE 5.0 km/h 8.7 km/h 71% 0.0 mm 0 W/m2
19:37 12.6 °C 7.5 °C 1020.9 hPa NE 8.7 km/h 9.7 km/h 71% 0.0 mm 0 W/m2
19:42 12.6 °C 7.5 °C 1020.9 hPa NE 5.0 km/h 9.7 km/h 71% 0.0 mm 0 W/m2
19:47 12.6 °C 7.7 °C 1020.9 hPa ENE 3.5 km/h 9.7 km/h 72% 0.0 mm 0 W/m2
19:52 12.5 °C 7.6 °C 1021.2 hPa ENE 3.5 km/h 8.7 km/h 72% 0.0 mm 0 W/m2
19:57 12.4 °C 7.7 °C 1021.2 hPa ENE 5.0 km/h 8.7 km/h 73% 0.0 mm 0 W/m2
20:02 12.4 °C 7.9 °C 1020.9 hPa ENE 3.5 km/h 8.7 km/h 74% 0.0 mm 0 W/m2
20:07 12.3 °C 7.8 °C 1020.9 hPa ENE 2.6 km/h 8.7 km/h 74% 0.0 mm 0 W/m2
20:12 12.1 °C 7.8 °C 1020.9 hPa ENE 3.5 km/h 7.2 km/h 75% 0.0 mm 0 W/m2
20:17 12.2 °C 7.9 °C 1021.2 hPa ENE 3.5 km/h 7.2 km/h 75% 0.0 mm 0 W/m2
20:22 12.2 °C 7.9 °C 1020.9 hPa ENE 2.6 km/h 7.2 km/h 75% 0.0 mm 0 W/m2
20:27 12.2 °C 7.9 °C 1020.9 hPa ENE 5.0 km/h 7.2 km/h 75% 0.0 mm 0 W/m2
20:32 12.3 °C 8.0 °C 1021.2 hPa ENE 2.6 km/h 8.7 km/h 75% 0.0 mm 0 W/m2
20:37 12.3 °C 8.0 °C 1021.2 hPa ENE 3.5 km/h 8.7 km/h 75% 0.0 mm 0 W/m2
20:42 12.3 °C 8.0 °C 1021.2 hPa ENE 2.6 km/h 7.2 km/h 75% 0.0 mm 0 W/m2
20:47 12.2 °C 7.9 °C 1021.6 hPa East 3.5 km/h 7.2 km/h 75% 0.0 mm 0 W/m2
20:52 12.3 °C 8.0 °C 1021.2 hPa East 6.1 km/h 8.7 km/h 75% 0.0 mm 0 W/m2
20:57 12.4 °C 8.1 °C 1020.9 hPa ESE 3.5 km/h 8.7 km/h 75% 0.0 mm 0 W/m2
21:02 12.5 °C 8.0 °C 1021.2 hPa East 2.6 km/h 8.7 km/h 74% 0.0 mm 0 W/m2
21:07 12.5 °C 8.0 °C 1020.9 hPa ESE 2.6 km/h 7.2 km/h 74% 0.0 mm 0 W/m2
21:12 12.4 °C 7.9 °C 1021.2 hPa ESE 1.1 km/h 5.0 km/h 74% 0.0 mm 0 W/m2
21:17 12.3 °C 8.0 °C 1020.9 hPa ESE 1.1 km/h 5.0 km/h 75% 0.0 mm 0 W/m2
21:22 12.2 °C 8.1 °C 1020.9 hPa SE 2.6 km/h 5.0 km/h 76% 0.0 mm 0 W/m2
21:27 12.0 °C 7.9 °C 1021.2 hPa Calm   5.0 km/h 76% 0.0 mm 0 W/m2
21:32 11.8 °C 7.9 °C 1020.9 hPa SSE 2.6 km/h 5.0 km/h 77% 0.0 mm 0 W/m2
21:37 11.7 °C 8.0 °C 1020.9 hPa SSE 1.1 km/h 5.0 km/h 78% 0.0 mm 0 W/m2
21:42 11.6 °C 8.1 °C 1021.2 hPa SSE 1.1 km/h 5.0 km/h 79% 0.0 mm 0 W/m2
21:47 11.5 °C 8.0 °C 1021.2 hPa Calm   3.5 km/h 79% 0.0 mm 0 W/m2
21:52 11.5 °C 8.2 °C 1020.9 hPa Calm   3.5 km/h 80% 0.0 mm 0 W/m2
21:57 11.6 °C 8.3 °C 1021.2 hPa ESE 2.6 km/h 3.5 km/h 80% 0.0 mm 0 W/m2
22:02 11.7 °C 8.2 °C 1020.9 hPa East 2.6 km/h 6.1 km/h 79% 0.0 mm 0 W/m2
22:07 11.7 °C 8.0 °C 1020.9 hPa East 2.6 km/h 6.1 km/h 78% 0.0 mm 0 W/m2
22:12 11.7 °C 8.0 °C 1020.9 hPa ENE 8.7 km/h 9.7 km/h 78% 0.0 mm 0 W/m2
22:17 11.8 °C 8.1 °C 1020.9 hPa NE 5.0 km/h 11.1 km/h 78% 0.0 mm 0 W/m2
22:22 11.8 °C 8.1 °C 1020.9 hPa NE 9.7 km/h 13.4 km/h 78% 0.0 mm 0 W/m2
22:27 11.8 °C 8.3 °C 1020.9 hPa ENE 9.7 km/h 14.8 km/h 79% 0.0 mm 0 W/m2
22:32 11.7 °C 8.2 °C 1021.2 hPa NE 7.2 km/h 14.8 km/h 79% 0.0 mm 0 W/m2
22:37 11.8 °C 8.3 °C 1020.9 hPa ENE 6.1 km/h 13.4 km/h 79% 0.0 mm 0 W/m2
22:42 11.8 °C 8.3 °C 1020.9 hPa ENE 5.0 km/h 12.2 km/h 79% 0.0 mm 0 W/m2
22:47 11.8 °C 8.3 °C 1020.9 hPa ENE 8.7 km/h 12.2 km/h 79% 0.0 mm 0 W/m2
22:52 11.9 °C 8.4 °C 1020.5 hPa East 8.7 km/h 12.2 km/h 79% 0.0 mm 0 W/m2
22:57 11.9 °C 8.4 °C 1020.2 hPa East 7.2 km/h 11.1 km/h 79% 0.0 mm 0 W/m2
23:02 11.8 °C 8.3 °C 1020.2 hPa East 7.2 km/h 11.1 km/h 79% 0.0 mm 0 W/m2
23:07 11.8 °C 8.3 °C 1020.2 hPa East 5.0 km/h 11.1 km/h 79% 0.0 mm 0 W/m2
23:12 11.7 °C 8.2 °C 1020.2 hPa ENE 6.1 km/h 9.7 km/h 79% 0.0 mm 0 W/m2
23:17 11.7 °C 8.0 °C 1020.2 hPa ENE 6.1 km/h 11.1 km/h 78% 0.0 mm 0 W/m2
23:22 11.7 °C 8.0 °C 1020.5 hPa NE 1.1 km/h 11.1 km/h 78% 0.0 mm 0 W/m2
23:27 11.6 °C 7.9 °C 1020.2 hPa NE 2.6 km/h 11.1 km/h 78% 0.0 mm 0 W/m2
23:32 11.5 °C 7.8 °C 1019.9 hPa Calm   7.2 km/h 78% 0.0 mm 0 W/m2
23:37 11.5 °C 7.8 °C 1020.2 hPa NNE 2.6 km/h 7.2 km/h 78% 0.0 mm 0 W/m2
23:42 11.5 °C 7.8 °C 1020.2 hPa NNE 2.6 km/h 6.1 km/h 78% 0.0 mm 0 W/m2
23:47 11.5 °C 7.8 °C 1020.2 hPa NE 3.5 km/h 6.1 km/h 78% 0.0 mm 0 W/m2
23:51 11.6 °C 7.9 °C 1019.9 hPa NE 9.7 km/h 12.2 km/h 78% 0.0 mm 0 W/m2
23:56 11.9 °C 8.2 °C 1020.2 hPa NE 5.0 km/h 12.2 km/h 78% 0.0 mm 0 W/m2
Northern Hawkes Bay. New Zealand Historic Data
Compliments of Weather Underground - 2 mb